Latest Coastal Weather Observations for Troughton Island

IDW60701

Issued at 5:42 am WST Friday 29 April 2016 (issued every 10 minutes, with the page automatically refreshed every 10 minutes)

About coastal observations | Map of coastal stations | Coastal observations for WA | Marine services | Other Formats
Station Details ID: 001007 Name: TROUGHTON ISLAND Lat: -13.75 Lon: 126.15 Height: 6.0 m
Data from the previous 72 hours. | See also: Recent months at Troughton Island
Date/Time
WST
Temp

°C
Wind Pressure Rain
since 9am
mm
Weather Cloud Vis
km
Sea
Height
m
Swell
Dir
 
Speed
knots
Gust
knots
hPa Trend Height
m
Period
s
Dir
29/05:30am 28.7 CALM 0 0 1011.8 - 0.0 - - - - - - -
29/05:00am 28.5 CALM 0 0 1011.5 - 0.0 - - - - - - -
29/04:30am 28.5 WNW 3 4 1011.3 - 0.0 - - - - - - -
29/04:00am 28.6 W 2 4 1011.2 - 0.0 - - - - - - -
29/03:30am 29.0 NW 2 3 1011.1 - 0.0 - - - - - - -
29/03:00am 28.6 WNW 3 5 1010.9 - 0.0 - - - - - - -
29/02:30am 28.7 W 4 6 1010.9 - 0.0 - - - - - - -
29/02:00am 28.4 WNW 3 4 1011.1 - 0.0 - - - - - - -
29/01:30am 28.6 WNW 3 5 1011.2 - 0.0 - - - - - - -
29/01:00am 28.4 WNW 4 5 1011.3 - 0.0 - - - - - - -
29/12:30am 28.3 NW 4 5 1011.5 - 0.0 - - - - - - -
29/12:00am 28.4 WNW 5 6 1011.8 - 0.0 - - - - - - -
 
Date/Time
WST
Temp

°C
Wind Pressure Rain
since 9am
mm
Weather Cloud Vis
km
Sea
Height
m
Swell
Dir
 
Speed
knots
Gust
knots
hPa Trend Height
m
Period
s
Dir
28/11:30pm 28.4 W 5 6 1012.0 - 0.0 - - - - - - -
28/11:00pm 28.3 WNW 5 6 1012.3 - 0.0 - - - - - - -
28/10:30pm 28.6 W 5 7 1012.4 - 0.0 - - - - - - -
28/10:00pm 29.0 WNW 6 7 1012.4 - 0.0 - - - - - - -
28/09:30pm 29.1 W 7 8 1012.4 - 0.0 - - - - - - -
28/09:00pm 29.1 WNW 7 8 1012.4 - 0.0 - - - - - - -
28/08:30pm 29.0 WNW 7 8 1012.1 - 0.0 - - - - - - -
28/08:00pm 29.2 WNW 7 8 1011.7 - 0.0 - - - - - - -
28/07:30pm 29.2 NW 7 8 1011.6 - 0.0 - - - - - - -
28/07:00pm 29.5 WNW 7 9 1011.0 - 0.0 - - - - - - -
28/06:30pm 29.5 NW 8 9 1010.6 - 0.0 - - - - - - -
28/06:00pm 29.7 NW 9 10 1010.3 - 0.0 - - - - - - -
28/05:30pm 30.1 WNW 8 9 1010.0 - 0.0 - - - - - - -
28/05:00pm 30.6 WNW 8 9 1009.9 - 0.0 - - - - - - -
28/04:30pm 31.2 WNW 9 10 1009.7 - 0.0 - - - - - - -
28/04:00pm 31.8 WNW 9 10 1009.5 - 0.0 - - - - - - -
28/03:30pm 31.9 WNW 8 10 1009.4 - 0.0 - - - - - - -
28/03:00pm 32.3 WNW 9 10 1009.3 - 0.0 - - - - - - -
28/02:30pm 32.5 WNW 8 9 1009.4 - 0.0 - - - - - - -
28/02:00pm 32.6 WNW 8 10 1009.5 - 0.0 - - - - - - -
28/01:30pm 33.1 W 7 9 1009.8 - 0.0 - - - - - - -
28/01:00pm 32.7 W 8 10 1010.0 - 0.0 - - - - - - -
28/12:30pm 33.3 W 7 9 1010.2 - 0.0 - - - - - - -
28/12:00pm 33.2 WSW 7 9 1010.3 - 0.0 - - - - - - -
28/11:30am 32.7 WSW 7 9 1010.6 - 0.0 - - - - - - -
28/11:00am 32.9 WSW 7 9 1011.0 - 0.0 - - - - - - -
28/10:30am 33.0 SW 9 11 1011.3 - 0.0 - - - - - - -
28/10:00am 32.7 WSW 9 11 1011.5 - 0.0 - - - - - - -
28/09:30am 32.6 SW 7 9 1011.9 - 0.0 - - - - - - -
28/09:00am 32.6 SW 8 10 1012.0 - 0.0 - - - - - - -
28/08:30am 31.9 SW 9 11 1011.8 - 0.0 - - - - - - -
28/08:00am 31.9 SW 8 10 1011.7 - 0.0 - - - - - - -
28/07:30am 30.9 SW 8 9 1011.4 - 0.0 - - - - - - -
28/07:00am 30.3 SW 7 9 1011.3 - 0.0 - - - - - - -
28/06:30am 29.7 SW 7 10 1011.0 - 0.0 - - - - - - -
28/06:00am 29.1 WSW 7 8 1010.6 - 0.0 - - - - - - -
28/05:30am 28.9 WSW 7 8 1010.3 - 0.0 - - - - - - -
28/05:00am 28.9 WSW 6 7 1010.1 - 0.0 - - - - - - -
28/04:30am 29.0 WSW 6 7 1009.8 - 0.0 - - - - - - -
28/04:00am 29.0 W 6 8 1009.7 - 0.0 - - - - - - -
28/03:30am 28.8 W 5 7 1009.5 - 0.0 - - - - - - -
28/03:00am 28.9 W 5 7 1009.5 - 0.0 - - - - - - -
28/02:30am 28.7 W 6 7 1009.6 - 0.0 - - - - - - -
28/02:00am 28.5 WNW 5 6 1009.7 - 0.0 - - - - - - -
28/01:30am 28.2 WNW 4 5 1009.9 - 0.0 - - - - - - -
28/01:00am 28.3 WNW 5 5 1010.2 - 0.0 - - - - - - -
28/12:30am 28.3 WNW 5 6 1010.4 - 0.0 - - - - - - -
28/12:00am 28.3 NW 5 7 1010.5 - 0.0 - - - - - - -
 
Date/Time
WST
Temp

°C
Wind Pressure Rain
since 9am
mm
Weather Cloud Vis
km
Sea
Height
m
Swell
Dir
 
Speed
knots
Gust
knots
hPa Trend Height
m
Period
s
Dir
27/11:30pm 28.6 CALM 0 4 1010.6 - 0.0 - - - - - - -
27/11:00pm 29.1 CALM 0 0 1010.7 - 0.0 - - - - - - -
27/10:30pm 29.2 CALM 0 0 1010.9 - 0.0 - - - - - - -
27/10:00pm 29.0 W 3 3 1011.2 - 0.0 - - - - - - -
27/09:30pm 28.8 W 4 5 1011.2 - 0.0 - - - - - - -
27/09:00pm 29.2 WSW 6 7 1011.3 - 0.0 - - - - - - -
27/08:30pm 29.2 WSW 6 7 1011.2 - 0.0 - - - - - - -
27/08:00pm 29.5 WSW 7 7 1011.0 - 0.0 - - - - - - -
27/07:30pm 29.1 W 6 7 1010.7 - 0.0 - - - - - - -
27/07:00pm 29.5 WNW 7 7 1010.1 - 0.0 - - - - - - -
27/06:30pm 29.8 WNW 7 9 1009.8 - 0.0 - - - - - - -
27/06:00pm 30.0 WNW 8 9 1009.4 - 0.0 - - - - - - -
27/05:30pm 30.2 WNW 8 9 1009.3 - 0.0 - - - - - - -
27/05:00pm 31.0 WNW 7 9 1009.1 - 0.0 - - - - - - -
27/04:30pm 31.8 WNW 7 8 1009.0 - 0.0 - - - - - - -
27/04:00pm 32.0 WNW 7 8 1008.9 - 0.0 - - - - - - -
27/03:30pm 32.2 WNW 7 8 1008.8 - 0.0 - - - - - - -
27/03:00pm 32.7 WNW 6 7 1008.9 - 0.0 - - - - - - -
27/02:30pm 32.4 WNW 7 8 1008.9 - 0.0 - - - - - - -
27/02:00pm 32.8 WNW 6 7 1008.9 - 0.0 - - - - - - -
27/01:30pm 32.8 W 6 7 1009.1 - 0.0 - - - - - - -
27/01:00pm 32.5 W 6 7 1009.5 - 0.0 - - - - - - -
27/12:30pm 32.7 WNW 6 7 1009.9 - 0.0 - - - - - - -
27/12:00pm 32.2 WNW 5 7 1010.2 - 0.0 - - - - - - -
27/11:30am 32.3 W 5 6 1010.7 - 0.0 - - - - - - -
27/11:00am 32.9 E 3 4 1011.1 - 0.0 - - - - - - -
27/10:30am 32.3 WSW 4 5 1011.4 - 0.0 - - - - - - -
27/10:00am 31.6 SW 4 6 1011.9 - 0.0 - - - - - - -
27/09:30am 31.6 WSW 5 6 1012.2 - 0.0 - - - - - - -
27/09:00am 31.3 SSW 5 7 1012.3 - 0.0 - - - - - - -
27/08:30am 30.4 SSW 6 8 1012.1 - 0.0 - - - - - - -
27/08:00am 30.7 S 7 9 1011.9 - 0.0 - - - - - - -
27/07:30am 30.4 S 8 10 1011.8 - 0.0 - - - - - - -
27/07:00am 30.1 S 7 9 1011.6 - 0.0 - - - - - - -
27/06:30am 29.3 S 6 7 1011.4 - 0.0 - - - - - - -
27/06:00am 28.7 SSW 7 8 1011.2 - 0.0 - - - - - - -
27/05:30am 28.5 S 7 9 1011.2 - 0.0 - - - - - - -
27/05:00am 28.7 S 8 9 1011.1 - 0.0 - - - - - - -
27/04:30am 28.4 SSW 7 9 1011.0 - 0.0 - - - - - - -
27/04:00am 28.4 SSW 6 8 1011.0 - 0.0 - - - - - - -
27/03:30am 28.7 S 8 10 1011.1 - 0.0 - - - - - - -
27/03:00am 28.4 S 6 8 1011.1 - 0.0 - - - - - - -
27/02:30am 28.6 ESE 2 5 1011.2 - 0.0 - - - - - - -
27/02:00am 28.3 CALM 0 0 1011.2 - 0.0 - - - - - - -
27/01:30am 29.2 NE 4 5 1011.3 - 0.0 - - - - - - -
27/01:00am 29.3 ENE 5 6 1011.5 - 0.0 - - - - - - -
27/12:30am 29.4 ENE 6 7 1011.7 - 0.0 - - - - - - -
27/12:00am 29.7 ENE 7 9 1011.9 - 0.0 - - - - - - -
 
Date/Time
WST
Temp

°C
Wind Pressure Rain
since 9am
mm
Weather Cloud Vis
km
Sea
Height
m
Swell
Dir
 
Speed
knots
Gust
knots
hPa Trend Height
m
Period
s
Dir
26/11:30pm 29.8 ENE 8 11 1012.1 - 0.0 - - - - - - -
26/11:00pm 29.9 ENE 9 11 1012.1 - 0.0 - - - - - - -
26/10:30pm 29.8 ENE 10 12 1012.2 - 0.0 - - - - - - -
26/10:00pm 29.9 ENE 10 12 1012.3 - 0.0 - - - - - - -
26/09:30pm 30.0 ENE 12 14 1012.2 - 0.0 - - - - - - -
26/09:00pm 30.1 ENE 12 15 1012.1 - 0.0 - - - - - - -
26/08:30pm 30.4 ENE 13 16 1012.0 - 0.0 - - - - - - -
26/08:00pm 30.5 ENE 13 15 1012.0 - 0.0 - - - - - - -
26/07:30pm 30.3 ENE 11 14 1011.8 - 0.0 - - - - - - -
26/07:00pm 30.4 ENE 12 15 1011.5 - 0.0 - - - - - - -
26/06:30pm 30.6 ENE 12 15 1011.1 - 0.0 - - - - - - -
26/06:00pm 30.9 NE 12 15 1010.8 - 0.0 - - - - - - -
26/05:30pm 31.2 NE 10 13 1010.5 - 0.0 - - - - - - -
26/05:00pm 31.5 NE 11 13 1010.3 - 0.0 - - - - - - -
26/04:30pm 31.9 NE 11 14 1010.1 - 0.0 - - - - - - -
26/04:00pm 32.2 NE 11 13 1009.9 - 0.0 - - - - - - -
26/03:30pm 32.8 NE 10 12 1009.9 - 0.0 - - - - - - -
26/03:00pm 33.3 NE 11 14 1009.7 - 0.0 - - - - - - -
26/02:30pm 33.4 NE 10 13 1009.7 - 0.0 - - - - - - -
26/02:00pm 33.2 NE 10 13 1009.8 - 0.0 - - - - - - -
26/01:30pm 33.6 ENE 8 10 1009.9 - 0.0 - - - - - - -
26/01:00pm 34.6 E 8 9 1010.0 - 0.0 - - - - - - -
26/12:30pm 34.2 E 8 9 1010.3 - 0.0 - - - - - - -
26/12:00pm 33.7 ESE 9 11 1010.7 - 0.0 - - - - - - -
26/11:30am 33.3 SE 8 9 1011.1 - 0.0 - - - - - - -
26/11:00am 33.3 ESE 9 11 1011.6 - 0.0 - - - - - - -
26/10:30am 33.1 ESE 9 11 1011.8 - 0.0 - - - - - - -
26/10:00am 32.7 SE 9 11 1012.0 - 0.0 - - - - - - -
26/09:30am 32.9 SE 9 11 1012.3 - 0.0 - - - - - - -
26/09:00am 32.1 SE 10 13 1012.5 - 0.0 - - - - - - -
26/08:30am 31.3 SE 9 11 1012.4 - 0.0 - - - - - - -
26/08:00am 31.1 SSE 8 10 1012.3 - 0.0 - - - - - - -
26/07:30am 30.3 SSE 8 9 1012.2 - 0.0 - - - - - - -
26/07:00am 29.9 SE 8 9 1012.1 - 0.0 - - - - - - -
26/06:30am 28.9 SE 8 9 1012.0 - 0.0 - - - - - - -
26/06:00am 27.2 SE 6 7 1011.7 - 0.0 - - - - - - -

Other Formats:

Comma delimited format used in spreadsheet applications
http://www.bom.gov.au/fwo/IDW60701/IDW60701.94102.axf

JavaScript Object Notation format (JSON) in row-major order
http://www.bom.gov.au/fwo/IDW60701/IDW60701.94102.json